Terminal Aerodrome Forecast
Issued by NWS Jackson, KY

Home | Current Version | Previous Version | Text Only | Print | Product List | Glossary On
Versions: 1 2 3 4 5 6 7 8 9 10 11 12 13 14
000
FTUS43 KJKL 261120
TAFLOZ
TAF
KLOZ 261120Z 2612/2712 VRB03KT 6SM BR SCT002 BKN250
     FM261300 VRB03KT P6SM FEW030 BKN250
     FM261600 23004KT P6SM VCTS SCT050CB BKN250
     FM270000 00000KT P6SM FEW050 BKN250
     FM270500 00000KT 3SM BR BKN250=

USA.gov is the U.S. government's official web portal to all federal, state and local government web resources and services.